Time;durP1;ratioP1;P1;durP2;ratioP2;P2;SDS_P1;SDS_P2;PMS_P1;PMS_P2;Temp;Humidity;BMP_temperature;BMP_pressure;BME280_temperature;BME280_humidity;BME280_pressure;Samples;Min_cycle;Max_cycle;Signal;HPM_P1;HPM_P2
2022/12/24 00:01:35;;;;;;;1.30;1.00;;;9.70;99.90;;;;;;4932218;29;20207;-68
2022/12/24 00:04:02;;;;;;;1.52;1.10;;;9.70;99.90;;;;;;4931287;29;20206;-69
2022/12/24 00:06:29;;;;;;;1.45;1.10;;;9.80;99.90;;;;;;4931587;29;20217;-69
2022/12/24 00:08:55;;;;;;;1.98;1.00;;;9.80;99.90;;;;;;4945591;28;20295;-69
2022/12/24 00:11:23;;;;;;;1.40;1.00;;;9.80;99.90;;;;;;4951365;28;20208;-69
2022/12/24 00:13:50;;;;;;;3.58;1.30;;;9.80;99.90;;;;;;4951805;28;20232;-69
2022/12/24 00:16:17;;;;;;;4.65;1.20;;;9.80;99.90;;;;;;4951016;28;20209;-69
2022/12/24 00:18:44;;;;;;;3.17;1.25;;;9.80;99.90;;;;;;4951076;28;20259;-69
2022/12/24 00:21:11;;;;;;;1.52;1.20;;;9.80;99.90;;;;;;4951333;28;20227;-69
2022/12/24 00:23:37;;;;;;;1.80;1.20;;;9.70;99.90;;;;;;4940140;29;20207;-69
2022/12/24 00:26:05;;;;;;;3.60;1.10;;;9.70;99.90;;;;;;4941004;29;20575;-69
2022/12/24 00:28:33;;;;;;;1.60;1.10;;;9.60;99.90;;;;;;4940403;28;20221;-69
2022/12/24 00:30:59;;;;;;;1.20;1.05;;;9.60;99.90;;;;;;4940228;29;20696;-69
2022/12/24 00:33:26;;;;;;;2.92;1.10;;;9.60;99.90;;;;;;4940790;28;20244;-69
2022/12/24 00:35:53;;;;;;;2.28;1.08;;;9.70;99.90;;;;;;4942235;29;20226;-69
2022/12/24 00:38:20;;;;;;;3.15;2.17;;;9.70;99.90;;;;;;4939688;29;20221;-69
2022/12/24 00:40:46;;;;;;;2.45;1.00;;;9.70;99.90;;;;;;4940861;28;20198;-68
2022/12/24 00:43:13;;;;;;;1.52;1.17;;;9.70;99.90;;;;;;4941388;29;20216;-69
2022/12/24 00:45:41;;;;;;;2.55;1.40;;;9.60;99.90;;;;;;4940391;29;20265;-69
2022/12/24 00:48:08;;;;;;;2.58;1.48;;;9.70;99.90;;;;;;4940208;28;20217;-67
2022/12/24 00:50:35;;;;;;;3.95;1.42;;;9.70;99.90;;;;;;4942140;29;20555;-69
2022/12/24 00:53:01;;;;;;;6.05;1.33;;;9.60;99.90;;;;;;4940388;29;20229;-69
2022/12/24 00:55:28;;;;;;;5.25;1.45;;;9.60;99.90;;;;;;4940041;28;20196;-69
2022/12/24 00:57:55;;;;;;;4.22;1.42;;;9.60;99.90;;;;;;4941938;29;20223;-69
2022/12/24 01:00:22;;;;;;;3.30;1.42;;;9.50;99.90;;;;;;4939775;29;20982;-69
2022/12/24 01:02:50;;;;;;;0.90;0.82;;;9.50;99.90;;;;;;4940651;28;20192;-69
2022/12/24 01:05:19;;;;;;;3.92;1.25;;;9.40;99.90;;;;;;4942671;29;20208;-70
2022/12/24 01:07:48;;;;;;;1.20;1.10;;;9.50;99.90;;;;;;4941704;29;20304;-69
2022/12/24 01:10:17;;;;;;;2.60;1.60;;;9.40;99.90;;;;;;4940212;28;20211;-68
2022/12/24 01:12:44;;;;;;;2.45;1.33;;;9.40;99.90;;;;;;4941962;28;20228;-69
2022/12/24 01:15:12;;;;;;;3.00;1.42;;;9.40;99.90;;;;;;4942285;29;20206;-69
2022/12/24 01:17:40;;;;;;;5.65;1.35;;;9.50;99.90;;;;;;4940639;29;20705;-69
2022/12/24 01:20:12;;;;;;;2.10;1.00;;;9.40;99.90;;;;;;4944590;28;20205;-69
2022/12/24 01:22:39;;;;;;;2.08;1.60;;;9.40;99.90;;;;;;4946514;28;20205;-69
2022/12/24 01:25:10;;;;;;;4.28;1.35;;;9.40;99.90;;;;;;4947667;28;20197;-68
2022/12/24 01:27:37;;;;;;;2.50;1.45;;;9.40;99.90;;;;;;4946020;29;20586;-69
2022/12/24 01:30:07;;;;;;;3.08;1.45;;;9.50;99.90;;;;;;4944331;29;20212;-69
2022/12/24 01:32:33;;;;;;;3.05;1.00;;;9.50;99.90;;;;;;4944596;28;20216;-69
2022/12/24 01:35:00;;;;;;;3.38;1.10;;;9.50;99.90;;;;;;4948855;28;20197;-69
2022/12/24 01:37:28;;;;;;;2.63;1.77;;;9.60;99.90;;;;;;4944870;28;20224;-69
2022/12/24 01:43:22;;;;;;;1.83;1.30;;;9.60;99.90;;;;;;4945499;29;20213;-69
2022/12/24 01:45:49;;;;;;;6.18;1.25;;;9.70;99.90;;;;;;4945227;29;20683;-69
2022/12/24 01:48:22;;;;;;;1.73;1.17;;;9.70;99.90;;;;;;4945154;28;20228;-68
2022/12/24 01:50:52;;;;;;;3.13;1.75;;;9.70;99.90;;;;;;4944980;29;20208;-68
2022/12/24 01:53:21;;;;;;;2.00;1.42;;;9.70;99.90;;;;;;4943501;28;20243;-69
2022/12/24 01:55:49;;;;;;;2.92;1.60;;;9.70;99.90;;;;;;4944485;28;20197;-69
2022/12/24 01:58:18;;;;;;;2.97;1.38;;;9.80;99.90;;;;;;4944973;29;20212;-69
2022/12/24 02:00:45;;;;;;;3.85;1.35;;;9.80;99.90;;;;;;4944027;29;20216;-68
2022/12/24 02:03:12;;;;;;;3.30;1.45;;;9.80;99.90;;;;;;4943696;28;20212;-69
2022/12/24 02:05:46;;;;;;;1.48;1.20;;;9.80;99.90;;;;;;4945312;29;20208;-69
2022/12/24 02:08:13;;;;;;;3.83;1.42;;;9.80;99.90;;;;;;4944550;29;20220;-69
2022/12/24 02:10:41;;;;;;;4.55;1.50;;;9.80;99.90;;;;;;4943275;29;20202;-69
2022/12/24 02:13:08;;;;;;;4.72;2.00;;;9.80;99.90;;;;;;4943902;28;20228;-69
2022/12/24 02:15:46;;;;;;;3.63;1.25;;;9.80;99.90;;;;;;4945569;29;20216;-68
2022/12/24 02:18:21;;;;;;;4.30;1.27;;;9.70;99.90;;;;;;4944337;29;20231;-69
2022/12/24 02:21:12;;;;;;;4.80;1.30;;;9.70;99.90;;;;;;4944088;29;20661;-69
2022/12/24 02:24:01;;;;;;;4.53;1.55;;;9.70;99.90;;;;;;4945179;29;20566;-69
2022/12/24 02:26:54;;;;;;;3.22;1.77;;;9.70;99.90;;;;;;4943933;29;20671;-68
2022/12/24 02:29:44;;;;;;;7.60;1.50;;;9.60;99.90;;;;;;4941898;28;20664;-69
2022/12/24 02:32:15;;;;;;;1.73;1.13;;;9.60;99.90;;;;;;4944228;29;20212;-68
2022/12/24 02:34:48;;;;;;;5.80;1.75;;;9.60;99.90;;;;;;4943139;29;20223;-69
2022/12/24 02:37:19;;;;;;;4.10;1.42;;;9.60;99.90;;;;;;4942898;28;20212;-69
2022/12/24 02:39:51;;;;;;;3.92;1.58;;;9.60;99.90;;;;;;4943029;29;20201;-69
2022/12/24 02:42:22;;;;;;;3.20;2.08;;;9.60;99.90;;;;;;4942617;28;20570;-69
2022/12/24 02:44:55;;;;;;;2.85;1.50;;;9.60;99.90;;;;;;4943663;28;20205;-69
2022/12/24 02:47:24;;;;;;;2.47;1.50;;;9.50;99.90;;;;;;4947886;29;20255;-69
2022/12/24 02:49:51;;;;;;;2.70;1.33;;;9.40;99.90;;;;;;4953116;28;20205;-69
2022/12/24 02:52:33;;;;;;;2.22;1.20;;;9.30;99.90;;;;;;4953355;28;20566;-69
2022/12/24 02:55:04;;;;;;;3.50;1.25;;;9.30;99.90;;;;;;4953236;28;20228;-69
2022/12/24 02:57:43;;;;;;;1.55;1.45;;;9.30;99.90;;;;;;4953367;28;20225;-69
2022/12/24 03:00:13;;;;;;;9.02;1.83;;;9.20;99.90;;;;;;4952806;28;20258;-69
2022/12/24 03:02:51;;;;;;;1.90;1.20;;;9.10;99.90;;;;;;4953413;28;20280;-69
2022/12/24 03:05:25;;;;;;;7.25;1.88;;;9.20;99.90;;;;;;4953247;28;20573;-69
2022/12/24 03:08:01;;;;;;;2.28;1.50;;;9.20;99.90;;;;;;4953214;28;20224;-69
2022/12/24 03:10:34;;;;;;;2.03;1.20;;;9.10;99.90;;;;;;4952685;28;20307;-69
2022/12/24 03:13:05;;;;;;;2.20;1.70;;;9.10;99.90;;;;;;4953012;28;20228;-69
2022/12/24 03:15:34;;;;;;;5.95;1.85;;;9.00;99.90;;;;;;4953217;28;20209;-69
2022/12/24 03:18:03;;;;;;;2.35;1.23;;;9.00;99.90;;;;;;4952894;28;20762;-69
2022/12/24 03:20:35;;;;;;;1.25;1.15;;;9.00;99.90;;;;;;4952544;28;20204;-69
2022/12/24 03:23:03;;;;;;;4.53;1.65;;;9.00;99.90;;;;;;4952780;28;20207;-68
2022/12/24 03:25:32;;;;;;;2.75;1.40;;;8.90;99.90;;;;;;4953014;28;20205;-68
2022/12/24 03:28:02;;;;;;;4.90;2.00;;;8.90;99.90;;;;;;4952662;28;20768;-68
2022/12/24 03:30:29;;;;;;;2.65;1.30;;;8.90;99.90;;;;;;4952350;28;20212;-69
2022/12/24 03:32:58;;;;;;;5.80;1.50;;;8.90;99.90;;;;;;4952730;28;20501;-69
2022/12/24 03:35:24;;;;;;;2.25;1.30;;;8.90;99.90;;;;;;4952727;28;20224;-69
2022/12/24 03:37:51;;;;;;;3.35;1.70;;;8.90;99.90;;;;;;4952689;28;20235;-69
2022/12/24 03:40:18;;;;;;;7.00;1.27;;;8.90;99.90;;;;;;4952017;28;20212;-68
2022/12/24 03:42:45;;;;;;;7.22;1.70;;;8.90;99.90;;;;;;4952395;28;20213;-68
2022/12/24 03:45:12;;;;;;;3.03;2.00;;;8.90;99.90;;;;;;4952420;28;20213;-68
2022/12/24 03:47:39;;;;;;;3.78;1.42;;;8.90;99.90;;;;;;4952681;28;20224;-68
2022/12/24 03:50:08;;;;;;;3.35;1.40;;;8.80;99.90;;;;;;4951772;28;20204;-69
2022/12/24 03:52:34;;;;;;;3.65;1.27;;;8.90;99.90;;;;;;4952545;28;20707;-68
2022/12/24 03:55:01;;;;;;;1.45;1.20;;;8.80;99.90;;;;;;4952346;28;20234;-68
2022/12/24 03:57:28;;;;;;;2.25;1.35;;;8.80;99.90;;;;;;4952523;28;20474;-69
2022/12/24 03:59:54;;;;;;;3.78;1.55;;;8.90;99.90;;;;;;4951796;28;20216;-68
2022/12/24 04:02:21;;;;;;;3.13;1.40;;;8.90;99.90;;;;;;4952497;28;20220;-69
2022/12/24 04:04:48;;;;;;;2.80;1.35;;;8.90;99.90;;;;;;4952365;28;20673;-69
2022/12/24 04:07:16;;;;;;;5.13;1.70;;;8.90;99.90;;;;;;4952202;28;20280;-69
2022/12/24 04:09:42;;;;;;;5.32;1.50;;;9.00;99.90;;;;;;4951673;28;20677;-69
2022/12/24 04:12:09;;;;;;;2.22;1.50;;;9.00;99.90;;;;;;4952213;28;20208;-68
2022/12/24 04:14:36;;;;;;;3.75;1.60;;;9.00;99.90;;;;;;4952376;28;20221;-69
2022/12/24 04:17:03;;;;;;;6.07;2.03;;;9.00;99.90;;;;;;4952295;28;20209;-69
2022/12/24 04:19:29;;;;;;;1.90;1.20;;;9.00;99.90;;;;;;4952026;28;20396;-69
2022/12/24 04:21:56;;;;;;;2.00;1.20;;;8.90;99.90;;;;;;4952329;28;20212;-69
2022/12/24 04:24:24;;;;;;;4.00;1.50;;;8.80;99.90;;;;;;4952002;28;20200;-69
2022/12/24 04:26:51;;;;;;;3.17;1.60;;;8.80;99.90;;;;;;4952173;28;20208;-69
2022/12/24 04:29:17;;;;;;;5.30;1.65;;;8.70;99.90;;;;;;4951380;28;20587;-69
2022/12/24 04:31:44;;;;;;;5.72;1.98;;;8.70;99.90;;;;;;4952251;28;20227;-69
2022/12/24 04:34:11;;;;;;;3.53;1.60;;;8.60;99.90;;;;;;4951806;28;20224;-69
2022/12/24 04:36:38;;;;;;;3.38;1.33;;;8.50;99.90;;;;;;4952300;28;20581;-69
2022/12/24 04:39:05;;;;;;;6.75;1.55;;;8.50;99.90;;;;;;4951342;28;20233;-69
2022/12/24 04:41:33;;;;;;;2.53;1.48;;;8.50;99.90;;;;;;4952107;28;20583;-69
2022/12/24 04:43:59;;;;;;;2.65;1.35;;;8.50;99.90;;;;;;4951870;28;20592;-69
2022/12/24 04:46:29;;;;;;;5.50;1.90;;;8.50;99.90;;;;;;4952078;28;20204;-69
2022/12/24 04:48:56;;;;;;;2.17;1.40;;;8.50;99.90;;;;;;4951425;28;20233;-69
2022/12/24 04:51:23;;;;;;;1.13;1.02;;;8.50;99.90;;;;;;4952070;28;20552;-69
2022/12/24 04:53:51;;;;;;;2.53;1.73;;;8.50;99.90;;;;;;4953569;28;20228;-69
2022/12/24 04:56:20;;;;;;;2.65;1.27;;;8.50;99.90;;;;;;4955629;28;20586;-69
2022/12/24 04:58:49;;;;;;;4.95;1.60;;;8.50;99.90;;;;;;4954969;28;20231;-69
2022/12/24 05:01:18;;;;;;;4.40;2.70;;;8.50;99.90;;;;;;4955636;28;20592;-69
2022/12/24 05:03:45;;;;;;;2.65;1.83;;;8.50;99.90;;;;;;4954609;28;20664;-69
2022/12/24 05:06:15;;;;;;;3.92;1.65;;;8.50;99.90;;;;;;4954799;28;20208;-69
2022/12/24 05:08:42;;;;;;;4.25;2.10;;;8.50;99.90;;;;;;4953394;28;20225;-69
2022/12/24 05:11:10;;;;;;;2.92;1.60;;;8.50;99.90;;;;;;4955734;28;20204;-69
2022/12/24 05:13:37;;;;;;;4.03;1.70;;;8.50;99.90;;;;;;4955875;28;20200;-69
2022/12/24 05:16:05;;;;;;;2.20;1.15;;;8.50;99.90;;;;;;4955628;28;20757;-68
2022/12/24 05:18:31;;;;;;;1.70;1.30;;;8.50;99.90;;;;;;4955110;28;20232;-69
2022/12/24 05:20:58;;;;;;;4.40;1.80;;;8.50;99.90;;;;;;4955571;28;20204;-68
2022/12/24 05:26:23;;;;;;;12.23;2.22;;;8.60;99.90;;;;;;4955537;29;20219;-69
2022/12/24 05:28:50;;;;;;;4.50;1.58;;;8.60;99.90;;;;;;4955023;28;20595;-69
2022/12/24 05:31:19;;;;;;;2.63;1.73;;;8.60;99.90;;;;;;4955356;28;20277;-69
2022/12/24 05:33:46;;;;;;;3.65;1.25;;;8.60;99.90;;;;;;4955590;28;20610;-69
2022/12/24 05:36:13;;;;;;;4.55;1.67;;;8.60;99.90;;;;;;4955266;28;20668;-69
2022/12/24 05:38:39;;;;;;;3.88;1.70;;;8.60;99.90;;;;;;4955070;28;20227;-69
2022/12/24 05:41:08;;;;;;;3.00;1.50;;;8.70;99.90;;;;;;4955260;28;20578;-69
2022/12/24 05:43:35;;;;;;;3.75;1.70;;;8.60;99.90;;;;;;4955381;28;20255;-69
2022/12/24 05:46:04;;;;;;;5.18;1.58;;;8.60;99.90;;;;;;4955412;28;20208;-68
2022/12/24 05:48:32;;;;;;;3.83;1.90;;;8.60;99.90;;;;;;4954925;28;20300;-69
2022/12/24 05:50:59;;;;;;;4.22;1.77;;;8.60;99.90;;;;;;4955357;28;20204;-69
2022/12/24 05:53:26;;;;;;;1.63;1.35;;;8.50;99.90;;;;;;4954829;28;20554;-69
2022/12/24 05:55:52;;;;;;;5.05;1.55;;;8.50;99.90;;;;;;4955095;28;20224;-69
2022/12/24 05:58:19;;;;;;;2.35;1.67;;;8.50;99.90;;;;;;4954458;28;20227;-69
2022/12/24 06:00:46;;;;;;;1.70;1.17;;;8.40;99.90;;;;;;4955228;28;20204;-69
2022/12/24 06:03:12;;;;;;;5.22;1.50;;;8.40;99.90;;;;;;4954855;28;20213;-69
2022/12/24 06:05:40;;;;;;;9.27;1.58;;;8.40;99.90;;;;;;4954851;28;20207;-69
2022/12/24 06:08:07;;;;;;;2.17;1.30;;;8.40;99.90;;;;;;4954645;28;20236;-69
2022/12/24 06:10:34;;;;;;;4.47;1.70;;;8.30;99.90;;;;;;4954955;28;20231;-69
2022/12/24 06:13:00;;;;;;;2.42;1.40;;;8.30;99.90;;;;;;4955111;28;20670;-69
2022/12/24 06:15:27;;;;;;;2.40;1.52;;;8.30;99.90;;;;;;4954918;28;20601;-69
2022/12/24 06:17:54;;;;;;;7.85;2.65;;;8.20;99.90;;;;;;4956035;28;20635;-69
2022/12/24 06:20:21;;;;;;;3.30;1.40;;;8.30;99.90;;;;;;4954131;28;20228;-68
2022/12/24 06:22:49;;;;;;;2.65;1.38;;;8.20;99.90;;;;;;4954632;28;20582;-70
2022/12/24 06:25:15;;;;;;;2.45;1.25;;;8.20;99.90;;;;;;4954714;28;20203;-68
2022/12/24 06:27:42;;;;;;;3.80;2.25;;;8.20;99.90;;;;;;4954465;28;20225;-68
2022/12/24 06:30:10;;;;;;;4.43;1.70;;;8.20;99.90;;;;;;4953689;28;20301;-68
2022/12/24 06:32:36;;;;;;;4.43;1.65;;;8.20;99.90;;;;;;4954677;28;20214;-68
2022/12/24 06:35:04;;;;;;;1.67;1.55;;;8.20;99.90;;;;;;4954224;28;20321;-70
2022/12/24 06:37:30;;;;;;;4.93;1.73;;;8.20;99.90;;;;;;4953979;28;20247;-68
2022/12/24 06:39:58;;;;;;;2.35;1.15;;;8.20;99.90;;;;;;4953925;28;20212;-67
2022/12/24 06:42:25;;;;;;;1.50;1.33;;;8.20;99.90;;;;;;4954048;28;20205;-69
2022/12/24 06:44:52;;;;;;;4.63;1.50;;;8.20;99.90;;;;;;4953497;28;20201;-70
2022/12/24 06:47:18;;;;;;;4.00;1.50;;;8.20;99.90;;;;;;4953607;28;21272;-69
2022/12/24 06:49:45;;;;;;;5.55;2.05;;;8.20;99.90;;;;;;4953011;28;20577;-69
2022/12/24 06:52:12;;;;;;;5.25;1.40;;;8.20;99.90;;;;;;4953386;28;20584;-68
2022/12/24 06:54:38;;;;;;;4.38;1.85;;;8.30;99.90;;;;;;4953904;28;20319;-68
2022/12/24 06:57:06;;;;;;;1.90;1.30;;;8.30;99.90;;;;;;4953477;28;20927;-68
2022/12/24 06:59:33;;;;;;;4.30;1.67;;;8.40;99.90;;;;;;4953277;28;20205;-68
2022/12/24 07:02:00;;;;;;;2.88;1.48;;;8.40;99.90;;;;;;4953509;28;20238;-68
2022/12/24 07:04:27;;;;;;;2.85;1.50;;;8.40;99.90;;;;;;4953927;28;20705;-69
2022/12/24 07:06:53;;;;;;;5.18;1.60;;;8.40;99.90;;;;;;4953392;28;20283;-69
2022/12/24 07:09:20;;;;;;;4.35;1.48;;;8.50;99.90;;;;;;4952803;28;20221;-69
2022/12/24 07:11:47;;;;;;;3.78;1.50;;;8.50;99.90;;;;;;4953382;28;20207;-69
2022/12/24 07:14:15;;;;;;;2.45;1.33;;;8.50;99.90;;;;;;4953074;28;20215;-69
2022/12/24 07:16:41;;;;;;;2.58;1.33;;;8.50;99.90;;;;;;4951262;28;20222;-70
2022/12/24 07:19:08;;;;;;;2.55;1.50;;;8.50;99.90;;;;;;4949922;28;20221;-69
2022/12/24 07:21:35;;;;;;;5.25;1.60;;;8.50;99.90;;;;;;4950763;28;20215;-69
2022/12/24 07:24:01;;;;;;;2.88;1.40;;;8.50;99.90;;;;;;4950441;28;20220;-69
2022/12/24 07:26:28;;;;;;;2.38;1.50;;;8.50;99.90;;;;;;4951257;28;20679;-69
2022/12/24 07:28:55;;;;;;;6.63;1.90;;;8.50;99.90;;;;;;4952388;28;20320;-68
2022/12/24 07:31:23;;;;;;;3.85;1.50;;;8.50;99.90;;;;;;4952796;28;20685;-69
2022/12/24 07:33:50;;;;;;;4.32;1.75;;;8.60;99.90;;;;;;4953356;28;20204;-69
2022/12/24 07:36:19;;;;;;;2.22;1.38;;;8.60;99.90;;;;;;4953028;28;20255;-69
2022/12/24 07:38:46;;;;;;;3.22;1.52;;;8.60;99.90;;;;;;4952551;28;20242;-69
2022/12/24 07:41:13;;;;;;;4.40;1.50;;;8.60;99.90;;;;;;4952927;28;20208;-69
2022/12/24 07:43:41;;;;;;;6.75;2.20;;;8.50;99.90;;;;;;4953235;28;20220;-68
2022/12/24 07:46:07;;;;;;;2.20;1.10;;;8.60;99.90;;;;;;4953183;28;20600;-68
2022/12/24 07:48:35;;;;;;;4.32;1.30;;;8.60;99.90;;;;;;4955871;28;20220;-68
2022/12/24 07:51:03;;;;;;;3.60;1.60;;;8.60;99.90;;;;;;4969598;28;20200;-69
2022/12/24 07:53:30;;;;;;;2.10;1.70;;;8.60;99.90;;;;;;4972017;28;20238;-69
2022/12/24 07:55:57;;;;;;;2.28;1.35;;;8.60;99.90;;;;;;4971230;28;20232;-69
2022/12/24 07:58:24;;;;;;;3.10;1.92;;;8.50;99.90;;;;;;4971088;28;20236;-68
2022/12/24 08:00:55;;;;;;;2.88;1.60;;;8.50;99.90;;;;;;4971471;28;20207;-69
2022/12/24 08:03:22;;;;;;;1.55;1.40;;;8.50;99.90;;;;;;4970883;28;20207;-68
2022/12/24 08:05:52;;;;;;;2.95;1.60;;;8.50;99.90;;;;;;4971340;28;20659;-68
2022/12/24 08:08:19;;;;;;;5.93;1.73;;;8.50;99.90;;;;;;4970622;28;20280;-68
2022/12/24 08:10:46;;;;;;;3.83;2.13;;;8.50;99.90;;;;;;4970906;28;20208;-68
2022/12/24 08:13:14;;;;;;;3.30;1.90;;;8.50;99.90;;;;;;4971088;28;20298;-68
2022/12/24 08:15:41;;;;;;;3.33;1.65;;;8.50;99.90;;;;;;4933713;28;20222;-68
2022/12/24 08:18:10;;;;;;;2.55;1.42;;;8.50;99.90;;;;;;4932213;29;20235;-69
2022/12/24 08:20:39;;;;;;;3.30;1.80;;;8.50;99.90;;;;;;4932559;29;20229;-69
2022/12/24 08:23:10;;;;;;;1.38;1.27;;;8.50;99.90;;;;;;4932480;29;20228;-68
2022/12/24 08:25:38;;;;;;;3.25;1.70;;;8.50;99.90;;;;;;4932022;29;20213;-69
2022/12/24 08:28:05;;;;;;;9.65;1.98;;;8.60;99.90;;;;;;4932169;29;20360;-68
2022/12/24 08:30:32;;;;;;;3.53;1.80;;;8.60;99.90;;;;;;4935779;29;20205;-69
2022/12/24 08:33:01;;;;;;;2.20;1.55;;;8.60;99.90;;;;;;4952237;29;20199;-68
2022/12/24 08:35:28;;;;;;;5.25;2.08;;;8.70;99.90;;;;;;4955339;28;20612;-69
2022/12/24 08:37:54;;;;;;;1.85;1.17;;;8.70;99.90;;;;;;4955399;28;20239;-69
2022/12/24 08:40:22;;;;;;;8.40;2.10;;;8.80;99.90;;;;;;4953778;28;20759;-69
2022/12/24 08:42:49;;;;;;;4.90;1.80;;;8.90;99.90;;;;;;4955121;28;20242;-68
2022/12/24 08:45:16;;;;;;;4.05;1.55;;;8.90;99.90;;;;;;4955087;28;20220;-68
2022/12/24 08:47:43;;;;;;;4.75;2.05;;;8.90;99.90;;;;;;4953980;28;20583;-69
2022/12/24 08:50:11;;;;;;;3.55;1.73;;;9.00;99.90;;;;;;4954398;28;20232;-69
2022/12/24 08:52:38;;;;;;;3.67;1.80;;;9.00;99.90;;;;;;4954883;28;20216;-69
2022/12/24 08:55:05;;;;;;;2.67;1.30;;;8.90;99.90;;;;;;4953264;28;20223;-69
2022/12/24 08:57:35;;;;;;;2.17;1.10;;;8.80;99.90;;;;;;4955167;28;20734;-68
2022/12/24 09:00:02;;;;;;;3.67;1.75;;;8.70;99.90;;;;;;4954331;28;20702;-69
2022/12/24 09:02:28;;;;;;;2.47;1.60;;;8.70;99.90;;;;;;4954725;28;20209;-68
2022/12/24 09:04:55;;;;;;;4.47;2.55;;;8.70;99.90;;;;;;4954717;28;20202;-68
2022/12/24 09:07:22;;;;;;;4.75;2.17;;;8.70;99.90;;;;;;4954921;28;20221;-68
2022/12/24 09:09:48;;;;;;;6.90;2.25;;;8.80;99.90;;;;;;4954003;28;20700;-69
2022/12/24 09:12:15;;;;;;;3.05;1.58;;;8.80;99.90;;;;;;4954677;28;20579;-69
2022/12/24 09:14:44;;;;;;;12.10;2.00;;;8.90;99.90;;;;;;4954718;28;20205;-69
2022/12/24 09:17:10;;;;;;;2.95;1.60;;;8.90;99.90;;;;;;4954042;28;20209;-70
2022/12/24 09:19:37;;;;;;;3.50;1.67;;;9.00;99.90;;;;;;4954166;28;20242;-69
2022/12/24 09:22:04;;;;;;;5.60;1.85;;;9.10;99.90;;;;;;4954549;28;20211;-70
2022/12/24 09:24:31;;;;;;;2.55;1.70;;;9.20;99.90;;;;;;4954502;28;20668;-67
2022/12/24 09:26:58;;;;;;;4.25;1.70;;;9.70;99.90;;;;;;4954727;28;20684;-70
2022/12/24 09:29:25;;;;;;;2.95;1.65;;;10.30;99.90;;;;;;4953855;28;20217;-70
2022/12/24 09:31:53;;;;;;;3.45;1.88;;;11.60;99.90;;;;;;4954519;28;20212;-69
2022/12/24 09:34:20;;;;;;;2.65;1.90;;;12.40;99.90;;;;;;4955219;28;20684;-70
2022/12/24 09:36:47;;;;;;;4.18;2.10;;;12.70;99.90;;;;;;4955347;28;20239;-69
2022/12/24 09:39:14;;;;;;;3.70;2.08;;;12.50;99.90;;;;;;4954040;28;20595;-69
2022/12/24 09:41:48;;;;;;;6.28;2.22;;;12.40;99.90;;;;;;4955387;28;20205;-69
2022/12/24 09:44:25;;;;;;;4.60;2.25;;;12.10;99.90;;;;;;4954976;28;20211;-70
2022/12/24 09:46:54;;;;;;;2.70;1.88;;;11.80;99.90;;;;;;4955171;28;20665;-69
2022/12/24 09:49:25;;;;;;;4.20;1.75;;;11.70;99.90;;;;;;4954303;28;20627;-69
2022/12/24 09:51:55;;;;;;;3.78;1.55;;;11.80;99.90;;;;;;4955151;28;20211;-69
2022/12/24 09:54:25;;;;;;;3.70;1.73;;;11.80;99.90;;;;;;4955071;28;20213;-69
2022/12/24 09:56:56;;;;;;;7.90;1.90;;;11.60;99.90;;;;;;4955098;28;20220;-69
2022/12/24 09:59:25;;;;;;;4.82;2.10;;;11.40;99.90;;;;;;4954274;28;20212;-69
2022/12/24 10:01:54;;;;;;;3.55;1.70;;;12.30;99.90;;;;;;4954788;28;20200;-69
2022/12/24 10:04:26;;;;;;;2.53;1.52;;;13.70;99.90;;;;;;4954577;29;20576;-69
2022/12/24 10:07:05;;;;;;;3.80;1.80;;;15.00;99.90;;;;;;4954800;29;20208;-69
2022/12/24 10:09:39;;;;;;;7.53;2.30;;;17.00;99.90;;;;;;4954287;29;20205;-70
2022/12/24 10:12:17;;;;;;;5.83;2.33;;;18.60;99.90;;;;;;4954437;29;20464;-71
2022/12/24 10:14:57;;;;;;;7.67;2.73;;;18.40;99.90;;;;;;4954662;29;20464;-68
2022/12/24 10:17:52;;;;;;;6.70;2.73;;;18.20;99.90;;;;;;4954190;29;20844;-70
2022/12/24 10:20:32;;;;;;;8.77;2.80;;;17.10;99.90;;;;;;4953966;29;20461;-70
2022/12/24 10:23:06;;;;;;;5.80;2.33;;;16.20;99.90;;;;;;4954702;29;20964;-70
2022/12/24 10:25:42;;;;;;;5.33;2.07;;;15.60;99.90;;;;;;4954743;29;20979;-70
2022/12/24 10:28:15;;;;;;;3.23;1.67;;;14.70;99.90;;;;;;4953938;28;20507;-70
2022/12/24 10:30:43;;;;;;;5.70;1.60;;;14.90;99.90;;;;;;4954175;29;20471;-70
2022/12/24 10:33:18;;;;;;;5.03;1.93;;;14.60;99.90;;;;;;4954170;29;20463;-70
2022/12/24 10:35:50;;;;;;;4.40;1.83;;;14.40;99.90;;;;;;4954324;29;20487;-70
2022/12/24 10:38:16;;;;;;;2.67;1.58;;;14.10;99.90;;;;;;4953675;29;20674;-70
2022/12/24 10:40:45;;;;;;;7.90;2.95;;;13.80;99.90;;;;;;4954180;29;20212;-69
2022/12/24 10:43:15;;;;;;;4.60;1.73;;;13.30;99.90;;;;;;4954039;29;20220;-70
2022/12/24 10:45:46;;;;;;;4.35;2.08;;;12.90;99.90;;;;;;4954089;29;20467;-70
2022/12/24 10:48:22;;;;;;;3.40;1.80;;;12.70;99.90;;;;;;4953639;29;20591;-70
2022/12/24 10:50:55;;;;;;;4.47;1.80;;;12.50;99.90;;;;;;4953193;28;20228;-70
2022/12/24 10:53:30;;;;;;;2.67;1.85;;;12.60;99.90;;;;;;4953576;28;20212;-70
2022/12/24 10:56:05;;;;;;;3.83;1.77;;;12.70;99.90;;;;;;4953826;29;20228;-70
2022/12/24 10:58:33;;;;;;;2.42;1.52;;;12.80;99.90;;;;;;4953318;29;20605;-70
2022/12/24 11:01:00;;;;;;;1.95;1.75;;;13.00;99.90;;;;;;4953526;29;20204;-69
2022/12/24 11:03:32;;;;;;;4.20;1.67;;;12.80;99.90;;;;;;4953977;29;20212;-69
2022/12/24 11:06:06;;;;;;;5.22;2.25;;;12.70;99.90;;;;;;4953467;29;20682;-70
2022/12/24 11:08:34;;;;;;;4.65;2.10;;;12.70;99.90;;;;;;4953120;29;20232;-70
2022/12/24 11:11:03;;;;;;;2.15;1.42;;;12.70;99.90;;;;;;4953787;28;20231;-70
2022/12/24 11:13:32;;;;;;;2.17;1.50;;;12.70;99.90;;;;;;4953065;29;20217;-70
2022/12/24 11:16:06;;;;;;;3.50;1.80;;;12.40;99.90;;;;;;4953493;29;20247;-70
2022/12/24 11:18:36;;;;;;;4.25;1.63;;;12.30;99.90;;;;;;4953121;29;20244;-70
2022/12/24 11:21:04;;;;;;;5.68;1.80;;;12.20;99.90;;;;;;4953387;29;20209;-71
2022/12/24 11:23:31;;;;;;;5.53;2.33;;;12.20;99.90;;;;;;4953842;29;20208;-70
2022/12/24 11:25:58;;;;;;;4.43;1.77;;;12.10;99.90;;;;;;4953720;29;20602;-70
2022/12/24 11:28:27;;;;;;;3.92;2.10;;;12.00;99.90;;;;;;4952478;29;20229;-70
2022/12/24 11:31:00;;;;;;;3.25;1.42;;;11.90;99.90;;;;;;4953150;29;20205;-69
2022/12/24 11:33:27;;;;;;;4.47;2.08;;;11.70;99.90;;;;;;4953424;29;20216;-69
2022/12/24 11:36:00;;;;;;;6.50;2.40;;;11.70;99.90;;;;;;4953169;29;20247;-70
2022/12/24 11:38:28;;;;;;;4.78;1.77;;;11.70;99.90;;;;;;4952200;29;20740;-69
2022/12/24 11:41:01;;;;;;;3.42;1.90;;;11.90;99.90;;;;;;4953006;29;20676;-69
2022/12/24 11:43:45;;;;;;;5.47;2.03;;;12.00;99.90;;;;;;4952335;29;20221;-70
2022/12/24 11:46:18;;;;;;;5.07;2.22;;;12.10;99.90;;;;;;4952927;28;20687;-69
2022/12/24 11:48:46;;;;;;;3.05;1.88;;;12.10;99.90;;;;;;4952189;29;20229;-69
2022/12/24 11:51:23;;;;;;;5.45;2.03;;;12.20;99.90;;;;;;4941285;29;20209;-69
2022/12/24 11:53:55;;;;;;;6.38;2.10;;;12.30;99.90;;;;;;4940517;29;20196;-69
2022/12/24 11:56:32;;;;;;;7.20;1.98;;;12.40;99.90;;;;;;4952621;28;20224;-70
2022/12/24 11:59:04;;;;;;;4.03;1.33;;;12.40;99.90;;;;;;4952525;28;20251;-69
2022/12/24 12:01:35;;;;;;;2.55;2.13;;;12.50;99.90;;;;;;4937542;28;20669;-69
2022/12/24 12:04:06;;;;;;;3.67;3.08;;;12.50;99.90;;;;;;4934484;29;20581;-69
2022/12/24 12:06:39;;;;;;;3.17;1.50;;;12.60;99.90;;;;;;4943020;28;20207;-69
2022/12/24 12:09:12;;;;;;;2.75;1.40;;;12.60;99.90;;;;;;4952373;28;20592;-70
2022/12/24 12:11:42;;;;;;;2.10;1.80;;;12.70;99.90;;;;;;4952913;28;20208;-70
2022/12/24 12:14:18;;;;;;;2.35;1.50;;;12.90;99.90;;;;;;4952751;28;20201;-70
2022/12/24 12:17:02;;;;;;;5.68;2.20;;;13.10;99.90;;;;;;4952835;28;20251;-69
2022/12/24 12:19:34;;;;;;;1.83;1.30;;;13.20;99.90;;;;;;4952112;28;20679;-69
2022/12/24 12:22:06;;;;;;;4.03;1.58;;;13.30;99.90;;;;;;4947241;28;20649;-69
2022/12/24 12:24:37;;;;;;;4.30;2.05;;;13.30;99.90;;;;;;4940577;29;20684;-69
2022/12/24 12:27:10;;;;;;;8.15;2.08;;;13.50;99.90;;;;;;4941735;29;20197;-69
2022/12/24 12:29:45;;;;;;;4.10;1.73;;;13.80;99.90;;;;;;4941291;28;20196;-69
2022/12/24 12:32:20;;;;;;;3.35;1.80;;;14.20;99.90;;;;;;4942717;29;20205;-69
2022/12/24 12:35:07;;;;;;;5.10;1.87;;;14.70;99.90;;;;;;4942371;29;20204;-69
2022/12/24 12:37:39;;;;;;;5.00;2.17;;;15.30;99.90;;;;;;4943338;29;20491;-69
2022/12/24 12:40:14;;;;;;;3.63;2.20;;;15.20;99.90;;;;;;4946663;29;20483;-69
2022/12/24 12:42:50;;;;;;;4.10;2.17;;;15.00;99.90;;;;;;4945937;28;20464;-69
2022/12/24 12:45:35;;;;;;;4.40;1.83;;;14.70;99.90;;;;;;4941368;29;20465;-70
2022/12/24 12:48:25;;;;;;;5.20;1.83;;;14.40;99.90;;;;;;4942084;29;20912;-69
2022/12/24 12:50:58;;;;;;;3.10;1.70;;;14.00;99.90;;;;;;4941749;29;20470;-69
2022/12/24 12:53:44;;;;;;;4.10;1.87;;;13.90;99.90;;;;;;4941086;28;20472;-69
2022/12/24 12:56:22;;;;;;;5.72;1.88;;;14.00;99.90;;;;;;4941606;29;20488;-69
2022/12/24 12:58:57;;;;;;;4.95;2.10;;;13.90;99.90;;;;;;4940979;29;20561;-69
2022/12/24 13:01:30;;;;;;;5.18;2.00;;;13.70;99.90;;;;;;4941095;28;20296;-69
2022/12/24 13:04:37;;;;;;;4.85;2.05;;;13.60;99.90;;;;;;4941914;28;20205;-68
2022/12/24 13:07:20;;;;;;;5.82;2.20;;;13.40;99.90;;;;;;4943001;29;20618;-69
2022/12/24 13:10:03;;;;;;;5.80;2.75;;;13.20;99.90;;;;;;4942631;29;20197;-69
2022/12/24 13:13:00;;;;;;;1.95;1.50;;;13.00;99.90;;;;;;4942905;29;20232;-69